createdAt,value
2023-01-23T00:03:41.590Z,20.27
2023-01-23T00:07:44.692Z,19.20
2023-01-23T00:11:47.809Z,21.50
2023-01-23T00:15:52.662Z,20.08
2023-01-23T00:19:55.973Z,20.77
2023-01-23T00:24:01.478Z,19.70
2023-01-23T00:28:05.069Z,21.80
2023-01-23T00:32:09.728Z,23.13
2023-01-23T00:36:15.019Z,24.37
2023-01-23T00:40:18.523Z,23.13
2023-01-23T00:44:21.888Z,22.00
2023-01-23T00:48:26.558Z,20.63
2023-01-23T00:52:30.351Z,24.03
2023-01-23T00:56:33.818Z,22.50
2023-01-23T01:00:37.146Z,21.33
2023-01-23T01:04:41.689Z,26.30
2023-01-23T01:08:44.853Z,20.17
2023-01-23T01:12:47.957Z,22.53
2023-01-23T01:16:51.122Z,22.57
2023-01-23T01:20:56.269Z,23.63
2023-01-23T01:24:59.373Z,23.17
2023-01-23T01:29:02.492Z,20.93
2023-01-23T01:33:05.746Z,23.17
2023-01-23T01:37:10.163Z,24.23
2023-01-23T01:41:14.590Z,25.47
2023-01-23T01:45:54.990Z,23.10
2023-01-23T01:50:01.247Z,24.90
2023-01-23T01:54:10.926Z,24.13
2023-01-23T01:58:15.191Z,26.97
2023-01-23T02:02:23.738Z,25.63
2023-01-23T02:06:27.555Z,28.60
2023-01-23T02:10:32.498Z,28.17
2023-01-23T02:14:36.385Z,24.80
2023-01-23T02:18:44.695Z,23.33
2023-01-23T02:22:54.002Z,26.93
2023-01-23T02:26:58.486Z,25.63
2023-01-23T02:31:02.746Z,27.87
2023-01-23T02:35:12.820Z,28.27
2023-01-23T02:39:19.209Z,25.90
2023-01-23T02:43:35.284Z,28.30
2023-01-23T02:47:41.504Z,24.30
2023-01-23T02:51:44.643Z,23.83
2023-01-23T02:55:47.664Z,26.40
2023-01-23T03:00:09.986Z,26.43
2023-01-23T03:04:13.091Z,27.70
2023-01-23T03:08:16.061Z,27.40
2023-01-23T03:12:20.440Z,19.43
2023-01-23T03:16:24.895Z,27.27
2023-01-23T03:20:28.747Z,25.10
2023-01-23T03:24:35.049Z,22.37
2023-01-23T03:28:55.730Z,28.77
2023-01-23T03:33:00.222Z,22.87
2023-01-23T03:37:04.443Z,27.00
2023-01-23T03:41:23.376Z,20.73
2023-01-23T03:45:27.297Z,25.40
2023-01-23T03:49:32.358Z,19.90
2023-01-23T03:53:35.740Z,24.93
2023-01-23T03:57:41.819Z,26.47
2023-01-23T04:02:04.898Z,26.17
2023-01-23T04:06:11.268Z,27.70
2023-01-23T04:10:14.655Z,25.37
2023-01-23T04:14:18.731Z,25.20
2023-01-23T04:18:21.955Z,24.90
2023-01-23T04:22:26.395Z,27.03
2023-01-23T04:26:29.454Z,24.67
2023-01-23T04:30:32.683Z,34.60
2023-01-23T04:34:42.279Z,23.37
2023-01-23T04:38:47.479Z,22.13
2023-01-23T04:42:57.065Z,26.87
2023-01-23T04:47:08.656Z,25.47
2023-01-23T04:51:11.805Z,23.10
2023-01-23T04:55:16.594Z,18.53
2023-01-23T04:59:21.035Z,22.73
2023-01-23T05:03:24.647Z,18.80
2023-01-23T05:07:28.557Z,19.47
2023-01-23T05:11:43.906Z,19.70
2023-01-23T05:15:49.215Z,20.50
2023-01-23T05:19:53.307Z,17.67
2023-01-23T05:23:56.379Z,24.70
2023-01-23T05:28:00.963Z,20.97
2023-01-23T05:32:04.138Z,23.23
2023-01-23T05:36:13.268Z,21.17
2023-01-23T05:40:16.477Z,24.77
2023-01-23T05:44:40.803Z,21.83
2023-01-23T05:48:51.633Z,21.70
2023-01-23T05:52:56.323Z,17.70
2023-01-23T05:56:59.618Z,22.40
2023-01-23T06:01:29.749Z,19.27
2023-01-23T06:05:55.850Z,16.90
2023-01-23T06:09:59.100Z,17.10
2023-01-23T06:14:02.879Z,17.40
2023-01-23T06:18:07.649Z,18.23
2023-01-23T06:22:10.716Z,20.67
2023-01-23T06:26:31.934Z,22.13
2023-01-23T06:30:35.603Z,20.67
2023-01-23T06:34:43.142Z,20.57
2023-01-23T06:38:47.281Z,19.40
2023-01-23T06:42:55.800Z,21.33
2023-01-23T06:46:59.425Z,18.17
2023-01-23T06:51:04.636Z,20.60
2023-01-23T06:55:08.421Z,20.47
2023-01-23T06:59:11.635Z,20.97
2023-01-23T07:03:16.205Z,18.63
2023-01-23T07:07:20.814Z,16.27
2023-01-23T07:11:25.782Z,17.27
2023-01-23T07:15:32.411Z,16.23
2023-01-23T07:19:35.433Z,16.97
2023-01-23T07:23:43.895Z,15.37
2023-01-23T07:27:46.985Z,15.83
2023-01-23T07:31:50.111Z,13.97
2023-01-23T07:35:53.336Z,14.40
2023-01-23T07:39:57.738Z,15.17
2023-01-23T07:44:00.786Z,16.83
2023-01-23T07:48:04.043Z,13.73
2023-01-23T07:52:07.235Z,17.00
2023-01-23T07:56:11.726Z,15.23
2023-01-23T08:00:15.240Z,14.87
2023-01-23T08:04:18.476Z,17.53
2023-01-23T08:08:21.555Z,20.60
2023-01-23T08:12:26.077Z,18.00
2023-01-23T08:16:29.411Z,31.67
2023-01-23T08:20:32.476Z,21.80
2023-01-23T08:24:35.832Z,15.93
2023-01-23T08:28:40.431Z,15.60
2023-01-23T08:32:43.559Z,18.53
2023-01-23T08:36:46.890Z,17.03
2023-01-23T08:40:51.777Z,18.07
2023-01-23T08:44:56.287Z,18.40
2023-01-23T08:48:59.324Z,18.43
2023-01-23T08:53:02.334Z,20.27
2023-01-23T08:57:05.597Z,25.37
2023-01-23T09:01:14.001Z,21.47
2023-01-23T09:05:17.420Z,23.23
2023-01-23T09:09:20.423Z,17.90
2023-01-23T09:13:23.675Z,17.20
2023-01-23T09:17:28.500Z,17.47
2023-01-23T09:21:31.559Z,23.17
2023-01-23T09:25:34.593Z,23.13
2023-01-23T09:29:37.764Z,21.93
2023-01-23T09:33:43.054Z,20.70
2023-01-23T09:38:01.231Z,15.90
2023-01-23T09:42:08.463Z,17.47
2023-01-23T09:46:19.143Z,21.40
2023-01-23T09:50:28.977Z,16.03
2023-01-23T09:54:39.936Z,18.27
2023-01-23T09:58:47.420Z,20.57
2023-01-23T10:02:50.656Z,21.70
2023-01-23T10:07:18.317Z,18.43
2023-01-23T10:11:30.699Z,21.23
2023-01-23T10:15:52.769Z,18.63
2023-01-23T10:20:15.198Z,26.37
2023-01-23T10:24:40.596Z,23.27
2023-01-23T10:28:45.358Z,16.60
2023-01-23T10:32:52.655Z,15.37
2023-01-23T10:37:06.458Z,14.93
2023-01-23T10:41:21.148Z,13.47
2023-01-23T10:45:26.292Z,14.23
2023-01-23T10:49:31.417Z,13.23
2023-01-23T10:53:44.542Z,19.65
2023-01-23T10:57:51.091Z,11.95
2023-01-23T11:02:00.039Z,13.75
2023-01-23T11:06:05.312Z,17.75
2023-01-23T11:10:21.775Z,31.38
2023-01-23T11:14:26.122Z,20.10
2023-01-23T11:18:36.105Z,13.48
2023-01-23T11:22:42.199Z,13.88
2023-01-23T11:26:45.682Z,13.98
2023-01-23T11:31:00.887Z,14.20
2023-01-23T11:35:16.009Z,12.13
2023-01-23T11:39:32.308Z,14.07
2023-01-23T11:43:35.546Z,14.27
2023-01-23T11:48:00.931Z,13.88
2023-01-23T11:52:22.791Z,16.70
2023-01-23T11:56:44.970Z,18.10
2023-01-23T12:00:56.883Z,13.35
2023-01-23T12:05:24.529Z,14.70
2023-01-23T12:09:34.225Z,13.93
2023-01-23T12:13:50.451Z,12.23
2023-01-23T12:22:20.258Z,12.27
2023-01-23T12:26:27.079Z,16.70
2023-01-23T12:31:09.763Z,11.68
2023-01-23T12:35:28.088Z,34.10
2023-01-23T12:39:54.865Z,26.55
2023-01-23T12:44:03.447Z,12.77
2023-01-23T12:48:12.865Z,13.00
2023-01-23T12:52:24.416Z,11.27
2023-01-23T12:56:31.751Z,11.65
2023-01-23T13:00:55.312Z,14.70
2023-01-23T13:05:10.659Z,14.70
2023-01-23T13:09:23.862Z,19.52
2023-01-23T13:13:28.773Z,12.75
2023-01-23T13:17:37.771Z,20.77
2023-01-23T13:21:58.554Z,19.92
2023-01-23T13:26:31.427Z,14.35
2023-01-23T13:30:45.789Z,10.80
2023-01-23T13:34:48.823Z,12.32
2023-01-23T13:39:25.377Z,16.27
2023-01-23T13:43:44.288Z,12.05
2023-01-23T14:23:51.877Z,11.00
2023-01-23T14:28:04.505Z,26.17
2023-01-23T14:32:23.349Z,28.35
2023-01-23T14:36:26.405Z,11.60
2023-01-23T14:40:43.089Z,10.88
2023-01-23T14:44:53.254Z,10.82
2023-01-23T14:48:57.467Z,9.93
2023-01-23T14:53:02.355Z,10.85
2023-01-23T14:57:10.273Z,9.32
2023-01-23T15:01:13.496Z,9.90
2023-01-23T15:05:23.516Z,12.95
2023-01-23T15:09:31.210Z,17.13
2023-01-23T15:13:41.787Z,12.27
2023-01-23T15:17:45.658Z,11.63
2023-01-23T15:21:48.754Z,9.13
2023-01-23T15:26:10.651Z,10.93
2023-01-23T15:30:43.410Z,12.93
2023-01-23T15:34:55.004Z,10.27
2023-01-23T15:39:00.002Z,10.65
2023-01-23T15:43:05.762Z,10.75
2023-01-23T15:47:10.835Z,11.18
2023-01-23T15:51:14.426Z,9.10
2023-01-23T15:55:17.906Z,10.40
2023-01-23T15:59:21.583Z,10.93
2023-01-23T16:03:26.246Z,12.30
2023-01-23T16:07:34.435Z,12.82
2023-01-23T16:11:38.846Z,14.98
2023-01-23T16:15:42.020Z,12.77
2023-01-23T16:19:46.515Z,10.90
2023-01-23T16:23:49.828Z,11.27
2023-01-23T16:27:52.884Z,12.02
2023-01-23T16:31:57.003Z,11.75
2023-01-23T16:36:02.453Z,11.68
2023-01-23T16:40:06.309Z,12.25
2023-01-23T16:44:11.518Z,11.30
2023-01-23T16:48:25.373Z,10.73
2023-01-23T16:52:31.574Z,12.50
2023-01-23T16:56:39.107Z,13.00
2023-01-23T17:00:43.516Z,13.15
2023-01-23T17:04:46.894Z,12.68
2023-01-23T17:08:52.421Z,10.73
2023-01-23T17:12:58.174Z,14.68
2023-01-23T17:17:06.080Z,13.35
2023-01-23T17:21:15.191Z,13.50
2023-01-23T17:25:21.681Z,15.93
2023-01-23T17:29:24.793Z,15.48
2023-01-23T17:33:32.259Z,16.35
2023-01-23T17:37:36.314Z,14.43
2023-01-23T17:41:40.764Z,13.93
2023-01-23T17:45:45.857Z,14.05
2023-01-23T17:49:54.472Z,15.88
2023-01-23T17:53:58.981Z,13.88
2023-01-23T17:58:03.392Z,14.95
2023-01-23T18:02:23.858Z,13.18
2023-01-23T18:06:29.635Z,15.55
2023-01-23T18:10:35.130Z,15.15
2023-01-23T18:14:48.157Z,13.10
2023-01-23T18:18:53.940Z,13.55
2023-01-23T18:22:57.928Z,14.10
2023-01-23T18:27:09.874Z,15.88
2023-01-23T18:31:19.770Z,17.65
2023-01-23T18:35:35.207Z,17.27
2023-01-23T18:39:50.133Z,15.38
2023-01-23T18:44:03.664Z,17.80
2023-01-23T18:48:24.613Z,16.05
2023-01-23T18:52:42.600Z,16.13
2023-01-23T18:56:57.476Z,15.00
2023-01-23T19:01:16.213Z,15.95
2023-01-23T19:05:29.072Z,16.33
2023-01-23T19:09:35.236Z,14.60
2023-01-23T19:13:45.363Z,17.38
2023-01-23T19:17:52.287Z,15.90
2023-01-23T19:21:57.474Z,18.63
2023-01-23T19:26:00.968Z,15.65
2023-01-23T19:30:04.670Z,17.55
2023-01-23T19:34:08.519Z,16.77
2023-01-23T19:38:14.948Z,16.98
2023-01-23T19:42:18.055Z,19.23
2023-01-23T19:46:22.197Z,17.33
2023-01-23T19:50:25.260Z,15.95
2023-01-23T19:54:29.855Z,18.98
2023-01-23T19:58:33.024Z,18.67
2023-01-23T20:02:36.081Z,18.90
2023-01-23T20:06:40.824Z,16.55
2023-01-23T20:10:45.261Z,18.35
2023-01-23T20:14:48.681Z,15.40
2023-01-23T20:18:53.523Z,15.32
2023-01-23T20:22:56.568Z,16.02
2023-01-23T20:27:00.995Z,15.18
2023-01-23T20:31:08.644Z,14.93
2023-01-23T20:35:12.501Z,17.48
2023-01-23T20:39:16.245Z,16.73
2023-01-23T20:43:20.797Z,15.20
2023-01-23T20:47:23.884Z,18.20
2023-01-23T20:51:27.470Z,15.55
2023-01-23T20:55:30.472Z,16.45
2023-01-23T20:59:35.050Z,14.23
2023-01-23T21:03:40.273Z,17.63
2023-01-23T21:07:43.336Z,18.92
2023-01-23T21:11:46.413Z,15.77
2023-01-23T21:15:59.255Z,13.07
2023-01-23T21:20:02.412Z,19.65
2023-01-23T21:24:05.730Z,12.60
2023-01-23T21:28:08.874Z,15.77
2023-01-23T21:32:13.408Z,17.58
2023-01-23T21:36:19.091Z,17.23
2023-01-23T21:40:22.319Z,15.85
2023-01-23T21:44:25.329Z,17.40
2023-01-23T21:48:31.474Z,14.10
2023-01-23T21:52:34.529Z,16.52
2023-01-23T21:56:37.556Z,13.18
2023-01-23T22:00:58.330Z,15.00
2023-01-23T22:05:02.802Z,12.82
2023-01-23T22:09:06.844Z,13.45
2023-01-23T22:13:09.887Z,13.25
2023-01-23T22:17:12.898Z,13.02
2023-01-23T22:21:17.294Z,14.40
2023-01-23T22:25:20.526Z,19.65
2023-01-23T22:29:23.884Z,13.48
2023-01-23T22:33:39.481Z,12.80
2023-01-23T22:37:44.701Z,13.65
2023-01-23T22:41:48.483Z,13.13
2023-01-23T22:45:51.604Z,12.05
2023-01-23T22:49:54.597Z,12.40
2023-01-23T22:54:00.014Z,13.73
2023-01-23T22:58:03.067Z,14.10
2023-01-23T23:02:06.311Z,13.68
2023-01-23T23:06:12.121Z,12.75
2023-01-23T23:10:16.590Z,15.15
2023-01-23T23:14:19.970Z,14.23
2023-01-23T23:18:23.038Z,11.23
2023-01-23T23:22:26.135Z,14.63
2023-01-23T23:26:32.320Z,11.55
2023-01-23T23:30:35.353Z,12.27
2023-01-23T23:34:38.396Z,11.57
2023-01-23T23:38:41.451Z,12.82
2023-01-23T23:42:46.092Z,12.77
2023-01-23T23:46:49.121Z,13.20
2023-01-23T23:50:52.746Z,17.55
2023-01-23T23:54:55.737Z,10.07
2023-01-23T23:59:00.242Z,10.40
